createdAt,value
2022-12-16T00:01:10.383Z,0.71
2022-12-16T00:11:32.453Z,0.62
2022-12-16T00:21:53.798Z,0.52
2022-12-16T00:32:16.127Z,0.40
2022-12-16T00:42:37.469Z,0.38
2022-12-16T00:52:58.930Z,0.38
2022-12-16T01:03:21.970Z,0.28
2022-12-16T01:13:44.015Z,0.21
2022-12-16T01:24:05.600Z,0.24
2022-12-16T01:34:27.011Z,0.12
2022-12-16T01:44:49.464Z,0.20
2022-12-16T01:55:18.815Z,0.21
2022-12-16T02:05:41.576Z,0.24
2022-12-16T02:16:02.909Z,0.27
2022-12-16T02:26:25.078Z,0.30
2022-12-16T02:36:49.451Z,0.43
2022-12-16T02:47:10.797Z,0.48
2022-12-16T02:57:41.332Z,0.54
2022-12-16T03:08:05.887Z,0.57
2022-12-16T03:18:27.463Z,0.58
2022-12-16T03:28:49.604Z,0.58
2022-12-16T03:39:14.532Z,0.58
2022-12-16T03:49:35.917Z,0.63
2022-12-16T03:59:57.275Z,0.61
2022-12-16T04:10:38.637Z,0.62
2022-12-16T04:21:18.637Z,0.58
2022-12-16T04:31:39.994Z,0.60
2022-12-16T04:42:20.083Z,0.66
2022-12-16T04:53:00.097Z,0.72
2022-12-16T05:03:40.181Z,0.79
2022-12-16T05:14:20.365Z,0.76
2022-12-16T05:25:00.509Z,0.83
2022-12-16T05:35:40.599Z,0.81
2022-12-16T05:46:20.848Z,0.80
2022-12-16T05:57:01.053Z,0.76
2022-12-16T06:07:41.094Z,0.67
2022-12-16T06:18:21.176Z,0.61
2022-12-16T06:29:01.311Z,0.64
2022-12-16T06:39:41.990Z,0.66
2022-12-16T06:50:22.544Z,0.64
2022-12-16T07:01:02.962Z,0.74
2022-12-16T07:11:43.374Z,0.78
2022-12-16T07:22:23.539Z,0.85
2022-12-16T07:33:03.726Z,0.92
2022-12-16T07:43:43.760Z,0.99
2022-12-16T07:54:23.872Z,0.87
2022-12-16T08:05:04.062Z,0.82
2022-12-16T08:15:44.160Z,0.85
2022-12-16T08:26:24.434Z,0.80
2022-12-16T08:37:04.669Z,0.76
2022-12-16T08:47:44.906Z,0.61
2022-12-16T08:58:25.039Z,0.65
2022-12-16T09:09:05.229Z,0.75
2022-12-16T09:19:45.312Z,0.74
2022-12-16T09:30:25.344Z,0.82
2022-12-16T09:41:05.297Z,0.82
2022-12-16T09:51:45.884Z,0.89
2022-12-16T10:02:30.452Z,1.01
2022-12-16T10:13:30.280Z,1.11
2022-12-16T10:24:13.701Z,1.26
2022-12-16T10:34:54.775Z,1.33
2022-12-16T10:45:47.684Z,1.40
2022-12-16T10:56:46.882Z,1.35
2022-12-16T11:07:40.668Z,1.41
2022-12-16T11:18:22.312Z,1.48
2022-12-16T11:29:02.486Z,1.42
2022-12-16T11:39:44.563Z,1.40
2022-12-16T11:50:27.586Z,1.45
2022-12-16T12:01:18.375Z,1.56
2022-12-16T12:12:21.779Z,1.61
2022-12-16T12:23:01.873Z,1.74
2022-12-16T12:33:48.055Z,1.74
2022-12-16T12:44:48.621Z,1.91
2022-12-16T12:55:35.458Z,1.90
2022-12-16T13:06:16.547Z,1.86
2022-12-16T13:17:02.949Z,1.93
2022-12-16T13:27:43.559Z,1.90
2022-12-16T13:38:25.176Z,1.95
2022-12-16T13:49:05.411Z,2.02
2022-12-16T13:59:48.163Z,2.07
2022-12-16T14:10:43.719Z,2.11
2022-12-16T14:21:23.887Z,2.15
2022-12-16T14:32:04.153Z,2.16
2022-12-16T14:42:45.932Z,2.13
2022-12-16T14:53:48.793Z,2.09
2022-12-16T15:04:47.240Z,1.98
2022-12-16T15:15:32.176Z,1.87
2022-12-16T15:26:14.407Z,1.85
2022-12-16T15:36:55.624Z,1.84
2022-12-16T15:47:38.816Z,1.89
2022-12-16T15:58:19.396Z,1.87
2022-12-16T16:08:59.609Z,1.87
2022-12-16T16:19:44.197Z,1.85
2022-12-16T16:30:24.231Z,1.84
2022-12-16T16:41:04.300Z,1.86
2022-12-16T16:51:44.303Z,1.82
2022-12-16T17:02:40.251Z,1.79
2022-12-16T17:13:21.120Z,1.78
2022-12-16T17:24:01.194Z,1.76
2022-12-16T17:34:41.256Z,1.76
2022-12-16T17:45:21.438Z,1.78
2022-12-16T17:56:01.602Z,1.76
2022-12-16T18:06:41.731Z,1.76
2022-12-16T18:17:22.006Z,1.73
2022-12-16T18:28:02.209Z,1.66
2022-12-16T18:38:42.300Z,1.61
2022-12-16T18:49:22.376Z,1.58
2022-12-16T19:00:02.590Z,1.58
2022-12-16T19:10:42.663Z,1.55
2022-12-16T19:21:22.949Z,1.55
2022-12-16T19:32:03.082Z,1.52
2022-12-16T19:42:43.239Z,1.54
2022-12-16T19:53:23.574Z,1.46
2022-12-16T20:04:03.746Z,1.36
2022-12-16T20:14:43.957Z,1.27
2022-12-16T20:25:24.143Z,1.21
2022-12-16T20:36:13.265Z,0.96
2022-12-16T20:46:56.221Z,0.81
2022-12-16T20:57:36.450Z,0.68
2022-12-16T21:08:16.403Z,0.48
2022-12-16T21:18:56.364Z,0.41
2022-12-16T21:29:36.748Z,0.31
2022-12-16T21:40:16.711Z,0.26
2022-12-16T21:50:56.604Z,0.11
2022-12-16T22:01:36.590Z,0.03
2022-12-16T22:12:16.602Z,-0.06
2022-12-16T22:22:56.770Z,-0.19
2022-12-16T22:33:36.822Z,-0.43
2022-12-16T22:44:16.954Z,-0.61
2022-12-16T22:54:57.062Z,-0.76
2022-12-16T23:05:44.666Z,-0.84
2022-12-16T23:16:24.777Z,-1.11
2022-12-16T23:27:04.867Z,-1.38
2022-12-16T23:37:44.978Z,-1.55
2022-12-16T23:48:26.043Z,-1.64
2022-12-16T23:59:06.716Z,-1.93
